Time;durP1;ratioP1;P1;durP2;ratioP2;P2;SDS_P1;SDS_P2;PMS_P1;PMS_P2;Temp;Humidity;BMP_temperature;BMP_pressure;BME280_temperature;BME280_humidity;BME280_pressure;Samples;Min_cycle;Max_cycle;Signal;HPM_P1;HPM_P2
2021/11/23 00:01:25;;;;;;;;;;;5.00;92.20;;;;;;5013560;28;20147;-79
2021/11/23 00:03:51;;;;;;;24.88;13.02;;;5.10;92.10;;;;;;5031602;28;19917;-77
2021/11/23 00:06:17;;;;;;;20.83;12.15;;;5.10;91.90;;;;;;5036346;28;20025;-77
2021/11/23 00:08:43;;;;;;;25.38;11.70;;;5.10;91.90;;;;;;5036474;28;20045;-78
2021/11/23 00:11:09;;;;;;;25.30;12.02;;;5.20;91.90;;;;;;5036439;28;20569;-78
2021/11/23 00:13:35;;;;;;;25.00;11.73;;;5.20;92.00;;;;;;5037647;28;20037;-77
2021/11/23 00:16:00;;;;;;;28.15;14.38;;;5.20;92.00;;;;;;5037372;28;20116;-78
2021/11/23 00:18:26;;;;;;;25.02;13.80;;;5.30;92.10;;;;;;5036415;28;20026;-78
2021/11/23 00:20:52;;;;;;;29.52;14.35;;;5.30;92.10;;;;;;5036463;28;20499;-78
2021/11/23 00:23:18;;;;;;;30.25;14.60;;;5.40;92.00;;;;;;5037692;28;20043;-77
2021/11/23 00:25:44;;;;;;;34.25;16.50;;;5.50;92.00;;;;;;5036317;28;20104;-78
2021/11/23 00:28:11;;;;;;;24.85;11.50;;;5.50;92.00;;;;;;5037675;28;20033;-78
2021/11/23 00:30:38;;;;;;;20.83;11.63;;;5.40;92.10;;;;;;5037507;28;20026;-78
2021/11/23 00:33:04;;;;;;;26.45;12.50;;;5.40;92.20;;;;;;5036212;28;20075;-78
2021/11/23 00:35:30;;;;;;;27.38;14.57;;;5.50;92.20;;;;;;5036193;28;20026;-77
2021/11/23 00:37:57;;;;;;;31.38;14.88;;;5.50;92.20;;;;;;5036273;28;20032;-77
2021/11/23 00:40:24;;;;;;;32.33;14.35;;;5.60;92.20;;;;;;5037717;28;20380;-78
2021/11/23 00:42:50;;;;;;;31.52;15.93;;;5.70;92.20;;;;;;5037338;28;20273;-78
2021/11/23 00:45:17;;;;;;;30.45;14.57;;;5.80;92.10;;;;;;5036375;28;20079;-78
2021/11/23 00:47:44;;;;;;;32.22;13.95;;;5.80;92.00;;;;;;5036133;28;20032;-77
2021/11/23 00:50:11;;;;;;;29.83;15.00;;;5.90;92.00;;;;;;5019781;28;20392;-78
2021/11/23 00:52:37;;;;;;;34.65;13.93;;;5.90;92.00;;;;;;5036064;28;20176;-77
2021/11/23 00:55:04;;;;;;;;;;;5.90;91.90;;;;;;5037776;28;20195;-78
2021/11/23 00:57:30;;;;;;;32.65;14.40;;;5.90;91.90;;;;;;5035892;28;19958;-77
2021/11/23 00:59:56;;;;;;;28.77;14.88;;;5.90;91.80;;;;;;5037046;28;20049;-78
2021/11/23 01:02:22;;;;;;;28.58;13.25;;;5.80;91.80;;;;;;5037152;28;20040;-78
2021/11/23 01:04:47;;;;;;;25.08;12.20;;;5.80;91.80;;;;;;5035850;28;20090;-78
2021/11/23 01:07:13;;;;;;;28.50;12.02;;;5.80;92.00;;;;;;5037152;28;20061;-78
2021/11/23 01:09:39;;;;;;;21.95;10.75;;;5.80;92.00;;;;;;5036275;28;20045;-78
2021/11/23 01:12:05;;;;;;;17.90;10.20;;;5.80;92.10;;;;;;5037179;28;20294;-78
2021/11/23 01:14:31;;;;;;;20.10;9.82;;;5.80;92.10;;;;;;5037118;28;20040;-79
2021/11/23 01:16:57;;;;;;;17.60;9.82;;;5.90;92.10;;;;;;5033972;28;20033;-77
2021/11/23 01:19:24;;;;;;;22.30;10.20;;;5.90;92.00;;;;;;5034039;28;20088;-77
2021/11/23 01:21:50;;;;;;;20.90;11.73;;;5.90;91.90;;;;;;5016276;28;20041;-78
2021/11/23 01:24:16;;;;;;;21.33;10.30;;;5.80;92.00;;;;;;5033939;28;20033;-78
2021/11/23 01:26:42;;;;;;;22.95;10.88;;;5.90;92.10;;;;;;5033876;28;20091;-78
2021/11/23 01:29:09;;;;;;;25.30;11.95;;;5.90;92.00;;;;;;5032444;28;20025;-79
2021/11/23 01:31:35;;;;;;;20.25;10.32;;;5.90;92.00;;;;;;5032432;28;20431;-78
2021/11/23 01:34:00;;;;;;;23.73;12.30;;;5.90;92.00;;;;;;5033934;28;20029;-77
2021/11/23 01:36:26;;;;;;;24.05;9.75;;;5.90;92.00;;;;;;5032431;28;20036;-77
2021/11/23 01:38:52;;;;;;;21.17;9.80;;;6.00;92.10;;;;;;5033696;28;20483;-77
2021/11/23 01:41:18;;;;;;;19.75;10.02;;;6.00;92.00;;;;;;5033639;28;20061;-77
2021/11/23 01:43:43;;;;;;;22.25;10.40;;;6.00;92.10;;;;;;5015830;28;20400;-78
2021/11/23 01:46:09;;;;;;;23.25;11.32;;;6.00;92.10;;;;;;5015787;28;20040;-78
2021/11/23 01:48:35;;;;;;;22.83;11.57;;;6.00;92.00;;;;;;5033605;28;20032;-76
2021/11/23 01:51:02;;;;;;;22.23;11.50;;;6.00;92.10;;;;;;5033487;28;20022;-77
2021/11/23 01:53:27;;;;;;;;;;;6.00;92.10;;;;;;5032428;28;20039;-78
2021/11/23 01:55:54;;;;;;;19.13;11.07;;;6.00;92.10;;;;;;5033350;28;19905;-78
2021/11/23 01:58:20;;;;;;;24.98;11.45;;;5.90;92.00;;;;;;5032013;28;20037;-78
2021/11/23 02:00:46;;;;;;;26.88;12.27;;;5.90;92.10;;;;;;5033221;28;20046;-78
2021/11/23 02:03:12;;;;;;;24.67;12.38;;;5.90;92.10;;;;;;5033297;28;20050;-77
2021/11/23 02:05:39;;;;;;;28.17;12.63;;;5.90;92.10;;;;;;5031905;28;20032;-78
2021/11/23 02:08:06;;;;;;;25.10;13.38;;;5.90;92.10;;;;;;5033136;28;20396;-78
2021/11/23 02:10:33;;;;;;;30.23;14.55;;;5.90;92.10;;;;;;5032167;28;20026;-76
2021/11/23 02:13:00;;;;;;;27.95;14.48;;;5.90;92.20;;;;;;5015295;28;20038;-77
2021/11/23 02:15:26;;;;;;;29.75;13.48;;;5.90;92.30;;;;;;5033104;28;20037;-78
2021/11/23 02:17:52;;;;;;;28.92;14.13;;;5.90;92.30;;;;;;5031696;28;20421;-77
2021/11/23 02:20:20;;;;;;;32.47;16.50;;;6.00;92.40;;;;;;5031704;28;20392;-77
2021/11/23 02:22:47;;;;;;;27.38;14.30;;;6.00;92.30;;;;;;5031490;28;20369;-77
2021/11/23 02:25:13;;;;;;;;;;;6.10;92.30;;;;;;5031845;28;20021;-78
2021/11/23 02:27:39;;;;;;;38.85;16.33;;;6.10;92.30;;;;;;5013786;28;20004;-77
2021/11/23 02:30:07;;;;;;;31.95;15.80;;;6.00;92.20;;;;;;5014902;28;20034;-78
2021/11/23 02:32:51;;;;;;;33.13;16.40;;;6.00;92.30;;;;;;5032642;28;20029;-77
2021/11/23 02:35:18;;;;;;;30.23;16.15;;;6.10;92.40;;;;;;5031386;28;20033;-76
2021/11/23 02:37:49;;;;;;;31.30;15.90;;;6.10;92.40;;;;;;5032570;28;20476;-78
2021/11/23 02:40:16;;;;;;;33.22;15.77;;;6.10;92.40;;;;;;5015347;28;20045;-77
2021/11/23 02:42:42;;;;;;;32.78;16.98;;;6.10;92.40;;;;;;5032464;28;20025;-77
2021/11/23 02:45:09;;;;;;;29.95;16.13;;;6.20;92.40;;;;;;5031101;28;20522;-77
2021/11/23 02:47:38;;;;;;;35.72;17.05;;;6.20;92.40;;;;;;5032206;28;20071;-76
2021/11/23 02:50:05;;;;;;;35.40;16.83;;;6.20;92.50;;;;;;5030999;28;20036;-75
2021/11/23 02:52:31;;;;;;;30.00;16.98;;;6.20;92.60;;;;;;5014652;28;20041;-77
2021/11/23 02:54:59;;;;;;;34.05;16.67;;;6.30;92.60;;;;;;5014518;28;20037;-77
2021/11/23 02:57:26;;;;;;;31.08;14.70;;;6.30;92.60;;;;;;5030830;28;20509;-76
2021/11/23 02:59:52;;;;;;;35.00;16.23;;;6.40;92.60;;;;;;5032008;28;20443;-77
2021/11/23 03:02:18;;;;;;;36.38;17.85;;;6.30;92.70;;;;;;5030668;28;20083;-77
2021/11/23 03:04:50;;;;;;;32.30;16.00;;;6.40;92.80;;;;;;5032188;28;20071;-76
2021/11/23 03:07:15;;;;;;;36.53;15.95;;;6.40;92.80;;;;;;5030628;28;20080;-77
2021/11/23 03:09:41;;;;;;;36.28;16.85;;;6.50;92.80;;;;;;5030815;28;20029;-76
2021/11/23 03:12:14;;;;;;;31.08;15.95;;;6.50;92.80;;;;;;5030755;28;20388;-77
2021/11/23 03:14:39;;;;;;;31.40;17.40;;;6.50;92.70;;;;;;5030599;28;20393;-77
2021/11/23 03:17:05;;;;;;;32.67;16.58;;;6.60;92.70;;;;;;5031808;28;20041;-77
2021/11/23 03:19:31;;;;;;;29.67;15.27;;;6.60;92.60;;;;;;5030670;28;20037;-77
2021/11/23 03:21:56;;;;;;;30.17;15.50;;;6.50;92.60;;;;;;5014110;28;20590;-77
2021/11/23 03:24:23;;;;;;;37.08;16.85;;;6.50;92.60;;;;;;5014082;28;20037;-78
2021/11/23 03:26:49;;;;;;;32.55;15.93;;;6.50;92.70;;;;;;5030435;28;20491;-78
2021/11/23 03:29:16;;;;;;;31.30;15.18;;;6.60;92.80;;;;;;5030471;28;20052;-79
2021/11/23 03:31:41;;;;;;;28.48;15.77;;;6.60;92.70;;;;;;5030619;28;20025;-78
2021/11/23 03:34:07;;;;;;;30.08;15.20;;;6.50;92.70;;;;;;5030254;28;20044;-78
2021/11/23 03:36:39;;;;;;;30.45;15.48;;;6.50;92.70;;;;;;5031640;28;20041;-79
2021/11/23 03:39:05;;;;;;;28.48;14.30;;;6.50;92.70;;;;;;5031100;28;20379;-78
2021/11/23 03:41:31;;;;;;;32.08;15.20;;;6.50;92.70;;;;;;5030163;28;20034;-77
2021/11/23 03:43:57;;;;;;;30.85;15.25;;;6.50;92.80;;;;;;5030187;28;20092;-77
2021/11/23 03:46:23;;;;;;;32.17;14.75;;;6.50;92.90;;;;;;5031421;28;20041;-79
2021/11/23 03:48:49;;;;;;;26.48;14.77;;;6.50;92.80;;;;;;5031275;28;20030;-78
2021/11/23 03:51:15;;;;;;;25.63;14.68;;;6.50;92.80;;;;;;5030273;28;20029;-78
2021/11/23 03:53:40;;;;;;;25.90;14.38;;;6.50;92.80;;;;;;5031310;28;20107;-79
2021/11/23 03:56:06;;;;;;;24.73;12.77;;;6.50;92.80;;;;;;4997300;28;20040;-78
2021/11/23 03:58:32;;;;;;;26.65;13.30;;;6.50;92.80;;;;;;5030014;28;20087;-79
2021/11/23 04:00:58;;;;;;;26.67;14.50;;;6.50;92.80;;;;;;5031127;28;20045;-77
2021/11/23 04:03:23;;;;;;;27.50;14.48;;;6.50;92.80;;;;;;5029784;28;20041;-79
2021/11/23 04:05:49;;;;;;;23.83;13.23;;;6.50;92.80;;;;;;5030107;28;20025;-78
2021/11/23 04:08:15;;;;;;;27.95;13.65;;;6.50;92.90;;;;;;5029946;28;20034;-78
2021/11/23 04:10:41;;;;;;;27.20;14.35;;;6.50;92.90;;;;;;5030061;28;20487;-78
2021/11/23 04:13:07;;;;;;;22.50;13.57;;;6.50;92.90;;;;;;5029996;28;20038;-78
2021/11/23 04:15:32;;;;;;;27.45;14.00;;;6.60;92.90;;;;;;5031255;28;20044;-79
2021/11/23 04:17:58;;;;;;;29.00;14.07;;;6.60;93.00;;;;;;5029758;28;20034;-78
2021/11/23 04:20:24;;;;;;;25.13;14.00;;;6.50;93.00;;;;;;5029871;28;20034;-77
2021/11/23 04:22:51;;;;;;;23.48;12.55;;;6.60;93.20;;;;;;5013188;28;20044;-79
2021/11/23 04:25:17;;;;;;;24.15;12.93;;;6.60;93.30;;;;;;5031065;28;20026;-79
2021/11/23 04:27:43;;;;;;;23.08;12.57;;;6.60;93.40;;;;;;5029737;28;20066;-78
2021/11/23 04:30:11;;;;;;;23.30;11.68;;;6.70;93.40;;;;;;5029606;28;20033;-78
2021/11/23 04:32:37;;;;;;;22.02;11.73;;;6.80;93.40;;;;;;5031045;28;20030;-78
2021/11/23 04:35:04;;;;;;;21.08;11.60;;;6.80;93.30;;;;;;5029904;28;20033;-79
2021/11/23 04:37:30;;;;;;;23.17;10.98;;;6.80;93.20;;;;;;5030807;28;20069;-78
2021/11/23 04:39:56;;;;;;;23.08;11.65;;;6.90;93.20;;;;;;5031261;28;20053;-78
2021/11/23 04:42:22;;;;;;;20.45;10.95;;;6.90;93.20;;;;;;5030914;28;20052;-79
2021/11/23 04:44:48;;;;;;;26.67;13.00;;;6.90;93.20;;;;;;5029626;28;20029;-79
2021/11/23 04:47:14;;;;;;;24.70;11.98;;;6.90;93.20;;;;;;5029508;28;20052;-78
2021/11/23 04:49:39;;;;;;;23.50;12.07;;;6.90;93.20;;;;;;5029594;28;20109;-78
2021/11/23 04:52:05;;;;;;;25.48;11.75;;;7.00;93.30;;;;;;5032916;28;20033;-79
2021/11/23 04:54:32;;;;;;;20.73;11.02;;;7.00;93.30;;;;;;5034577;28;20034;-78
2021/11/23 04:56:58;;;;;;;21.55;11.52;;;7.00;93.20;;;;;;5033205;28;20022;-79
2021/11/23 04:59:24;;;;;;;23.48;11.50;;;7.00;93.20;;;;;;5032865;28;20033;-79
2021/11/23 05:01:50;;;;;;;21.30;11.88;;;7.00;93.10;;;;;;5033304;28;20025;-78
2021/11/23 05:04:16;;;;;;;22.52;11.98;;;7.00;93.10;;;;;;5034422;28;20450;-79
2021/11/23 05:06:42;;;;;;;23.67;11.68;;;7.00;93.10;;;;;;5032947;28;20030;-78
2021/11/23 05:09:07;;;;;;;26.08;12.30;;;6.90;93.10;;;;;;5032977;28;20034;-78
2021/11/23 05:11:36;;;;;;;20.90;10.45;;;6.90;93.20;;;;;;5033089;28;20084;-78
2021/11/23 05:14:02;;;;;;;24.60;11.25;;;6.90;93.20;;;;;;5032970;28;20026;-78
2021/11/23 05:16:28;;;;;;;25.08;12.18;;;6.90;93.30;;;;;;5016441;28;20030;-78
2021/11/23 05:18:53;;;;;;;21.92;10.98;;;6.90;93.40;;;;;;5032743;28;20121;-79
2021/11/23 05:21:19;;;;;;;25.98;11.50;;;7.00;93.40;;;;;;5032726;28;20044;-78
2021/11/23 05:23:45;;;;;;;22.70;11.45;;;7.00;93.40;;;;;;5034016;28;20064;-78
2021/11/23 05:26:10;;;;;;;27.45;12.00;;;7.10;93.40;;;;;;5016284;28;20033;-77
2021/11/23 05:28:36;;;;;;;22.35;10.20;;;7.10;93.40;;;;;;5033910;28;20037;-79
2021/11/23 05:31:02;;;;;;;24.30;12.70;;;7.10;93.50;;;;;;5032741;28;20033;-78
2021/11/23 05:33:27;;;;;;;27.38;13.20;;;7.10;93.50;;;;;;5033814;28;20369;-78
2021/11/23 05:35:53;;;;;;;27.55;13.85;;;7.10;93.50;;;;;;5032245;28;20504;-78
2021/11/23 05:38:20;;;;;;;24.77;12.15;;;7.10;93.50;;;;;;5032432;28;20041;-76
2021/11/23 05:40:46;;;;;;;24.17;12.63;;;7.10;93.60;;;;;;5032625;28;20026;-77
2021/11/23 05:43:13;;;;;;;18.70;10.90;;;7.10;93.70;;;;;;5032279;28;20546;-77
2021/11/23 05:45:40;;;;;;;25.17;12.35;;;7.10;93.40;;;;;;5033640;28;20040;-77
2021/11/23 05:48:06;;;;;;;21.63;11.48;;;7.10;93.40;;;;;;5032131;28;20049;-78
2021/11/23 05:50:32;;;;;;;25.83;13.07;;;7.10;93.60;;;;;;5033522;28;20080;-76
2021/11/23 05:52:59;;;;;;;21.23;12.13;;;7.10;93.50;;;;;;5033629;28;20033;-77
2021/11/23 05:55:25;;;;;;;26.10;12.35;;;7.10;93.50;;;;;;5033509;28;20033;-77
2021/11/23 05:57:50;;;;;;;27.40;13.23;;;7.10;93.50;;;;;;5033298;28;20409;-76
2021/11/23 06:00:16;;;;;;;24.02;12.05;;;7.10;93.50;;;;;;5031935;28;20504;-77
2021/11/23 06:02:42;;;;;;;24.08;11.63;;;7.20;93.50;;;;;;5033014;28;20041;-76
2021/11/23 06:05:08;;;;;;;23.42;12.57;;;7.20;93.50;;;;;;5033262;28;20026;-77
2021/11/23 06:07:33;;;;;;;25.70;12.60;;;7.20;93.50;;;;;;5033126;28;20053;-76
2021/11/23 06:09:59;;;;;;;25.23;12.27;;;7.20;93.40;;;;;;5015283;28;20073;-77
2021/11/23 06:12:28;;;;;;;21.95;11.98;;;7.20;93.30;;;;;;5015183;28;20049;-77
2021/11/23 06:14:54;;;;;;;23.52;13.63;;;7.20;93.30;;;;;;5031903;28;20519;-77
2021/11/23 06:17:21;;;;;;;26.48;13.40;;;7.10;93.30;;;;;;5032868;28;20073;-78
2021/11/23 06:19:46;;;;;;;23.75;12.50;;;7.10;93.30;;;;;;5032836;28;20067;-77
2021/11/23 06:22:12;;;;;;;26.38;12.98;;;7.10;93.40;;;;;;5031385;28;20029;-77
2021/11/23 06:24:38;;;;;;;29.23;12.27;;;7.00;93.40;;;;;;5031302;28;20033;-78
2021/11/23 06:27:04;;;;;;;28.08;12.52;;;7.00;93.40;;;;;;5031295;28;20535;-78
2021/11/23 06:29:30;;;;;;;29.00;14.52;;;7.10;93.60;;;;;;5032598;28;20520;-77
2021/11/23 06:31:58;;;;;;;23.70;12.70;;;7.10;93.60;;;;;;5031401;28;20091;-77
2021/11/23 06:34:23;;;;;;;27.25;13.18;;;7.10;93.50;;;;;;5032724;28;20040;-77
2021/11/23 06:36:49;;;;;;;24.85;13.43;;;7.10;93.50;;;;;;5032583;28;20038;-77
2021/11/23 06:39:15;;;;;;;27.13;12.23;;;7.10;93.50;;;;;;5031450;28;20511;-77
2021/11/23 06:41:41;;;;;;;23.27;12.45;;;7.10;93.50;;;;;;5032448;28;20029;-77
2021/11/23 06:44:07;;;;;;;21.20;11.40;;;7.10;93.50;;;;;;5031195;28;20030;-77
2021/11/23 06:46:34;;;;;;;23.20;12.88;;;7.10;93.60;;;;;;5014661;28;20488;-77
2021/11/23 06:49:00;;;;;;;23.38;12.50;;;7.10;93.60;;;;;;5032378;28;20039;-78
2021/11/23 06:51:26;;;;;;;26.85;12.48;;;7.10;93.60;;;;;;5032214;28;20029;-77
2021/11/23 06:53:52;;;;;;;23.92;12.20;;;7.10;93.60;;;;;;5032082;28;20479;-77
2021/11/23 06:56:18;;;;;;;22.50;11.35;;;7.20;93.70;;;;;;5014124;28;20060;-77
2021/11/23 06:58:44;;;;;;;25.35;12.98;;;7.20;93.70;;;;;;5030688;28;20030;-78
2021/11/23 07:01:10;;;;;;;29.95;12.85;;;7.20;93.80;;;;;;5014019;28;20050;-79
2021/11/23 07:03:35;;;;;;;28.75;13.23;;;7.30;93.90;;;;;;5031707;28;20044;-78
2021/11/23 07:06:01;;;;;;;28.83;13.40;;;7.30;93.90;;;;;;5031697;28;20052;-78
2021/11/23 07:08:27;;;;;;;24.27;11.40;;;7.30;93.80;;;;;;5013853;28;20040;-78
2021/11/23 07:10:53;;;;;;;22.73;12.23;;;7.30;93.90;;;;;;5013782;28;20057;-78
2021/11/23 07:13:19;;;;;;;22.40;11.85;;;7.40;93.90;;;;;;5030069;28;20038;-78
2021/11/23 07:15:45;;;;;;;23.75;12.27;;;7.40;93.90;;;;;;5030166;28;20708;-77
2021/11/23 07:18:11;;;;;;;20.38;11.20;;;7.40;93.80;;;;;;5031502;28;20029;-77
2021/11/23 07:20:37;;;;;;;27.73;12.57;;;7.40;93.80;;;;;;5031420;28;20438;-78
2021/11/23 07:23:03;;;;;;;25.58;11.57;;;7.40;93.80;;;;;;5031791;28;20025;-78
2021/11/23 07:25:29;;;;;;;21.85;11.43;;;7.40;93.70;;;;;;5030088;28;20083;-78
2021/11/23 07:27:55;;;;;;;25.23;12.25;;;7.40;93.70;;;;;;5013512;28;20029;-77
2021/11/23 07:30:20;;;;;;;21.45;10.90;;;7.40;93.70;;;;;;5030318;28;20163;-78
2021/11/23 07:32:46;;;;;;;21.30;12.05;;;7.40;93.80;;;;;;5013747;28;20555;-78
2021/11/23 07:35:12;;;;;;;23.92;12.43;;;7.40;93.80;;;;;;5030069;28;20033;-77
2021/11/23 07:37:41;;;;;;;22.20;12.73;;;7.40;93.80;;;;;;5013536;28;20345;-78
2021/11/23 07:40:09;;;;;;;24.00;12.70;;;7.40;93.80;;;;;;5030049;28;20167;-78
2021/11/23 07:42:35;;;;;;;20.45;11.82;;;7.40;94.00;;;;;;5031159;28;20039;-77
2021/11/23 07:45:01;;;;;;;23.40;11.68;;;7.40;94.00;;;;;;5031329;28;20097;-77
2021/11/23 07:47:26;;;;;;;21.25;12.13;;;7.40;94.00;;;;;;5013359;28;20037;-78
2021/11/23 07:49:52;;;;;;;28.20;14.85;;;7.40;94.00;;;;;;5030787;28;20028;-77
2021/11/23 07:52:18;;;;;;;25.05;13.05;;;7.50;94.00;;;;;;5029923;28;20053;-78
2021/11/23 07:54:43;;;;;;;20.92;12.05;;;7.50;93.90;;;;;;5029744;28;20044;-78
2021/11/23 07:57:09;;;;;;;20.23;11.57;;;7.50;94.00;;;;;;5030990;28;20026;-76
2021/11/23 07:59:35;;;;;;;26.95;12.63;;;7.50;94.00;;;;;;5029225;28;20033;-78
2021/11/23 08:02:01;;;;;;;21.05;11.15;;;7.50;94.00;;;;;;5030579;28;20064;-78
2021/11/23 08:04:27;;;;;;;23.00;11.73;;;7.50;94.00;;;;;;5029573;28;20053;-76
2021/11/23 08:06:53;;;;;;;26.52;13.18;;;7.50;94.00;;;;;;5029489;28;20038;-77
2021/11/23 08:09:18;;;;;;;22.48;11.88;;;7.60;94.00;;;;;;5031086;28;20018;-76
2021/11/23 08:11:44;;;;;;;26.48;12.57;;;7.60;94.00;;;;;;5030852;28;20114;-76
2021/11/23 08:14:10;;;;;;;27.23;13.88;;;7.60;94.00;;;;;;5031054;28;20036;-78
2021/11/23 08:16:36;;;;;;;26.05;12.68;;;7.60;93.90;;;;;;5029485;28;20128;-77
2021/11/23 08:19:02;;;;;;;23.85;13.32;;;7.60;93.90;;;;;;5012972;28;20038;-77
2021/11/23 08:21:30;;;;;;;25.90;12.65;;;7.60;93.90;;;;;;5029448;28;20128;-78
2021/11/23 08:23:56;;;;;;;26.08;12.15;;;7.60;93.90;;;;;;5030953;28;20087;-77
2021/11/23 08:26:24;;;;;;;22.40;12.18;;;7.50;93.90;;;;;;5032507;28;20464;-78
2021/11/23 08:28:50;;;;;;;21.52;11.93;;;7.50;94.00;;;;;;5033114;28;20026;-78
2021/11/23 08:31:16;;;;;;;21.48;12.18;;;7.50;94.00;;;;;;5034618;28;20028;-77
2021/11/23 08:33:42;;;;;;;20.75;10.38;;;7.50;94.10;;;;;;5035327;28;20124;-78
2021/11/23 08:36:08;;;;;;;22.45;11.82;;;7.60;94.20;;;;;;5033218;28;20029;-77
2021/11/23 08:38:36;;;;;;;21.10;10.95;;;7.60;94.20;;;;;;5032481;28;20040;-78
2021/11/23 08:41:02;;;;;;;22.50;11.77;;;7.60;94.20;;;;;;5034397;28;20029;-77
2021/11/23 08:43:28;;;;;;;22.20;12.23;;;7.60;94.20;;;;;;5033993;28;20458;-77
2021/11/23 08:45:54;;;;;;;27.48;13.05;;;7.70;94.20;;;;;;5032358;28;20029;-77
2021/11/23 08:48:20;;;;;;;19.52;10.85;;;7.70;94.20;;;;;;5032713;28;20423;-78
2021/11/23 08:50:46;;;;;;;23.92;12.10;;;7.70;94.10;;;;;;5034101;28;20527;-78
2021/11/23 08:53:12;;;;;;;21.05;11.35;;;7.70;94.00;;;;;;5032662;28;20041;-78
2021/11/23 08:55:39;;;;;;;21.13;10.57;;;7.70;94.00;;;;;;5032134;28;20037;-78
2021/11/23 08:58:06;;;;;;;21.00;11.57;;;7.70;94.10;;;;;;5033573;28;20034;-77
2021/11/23 09:00:33;;;;;;;25.08;11.05;;;7.70;94.10;;;;;;5033631;28;20133;-77
2021/11/23 09:03:01;;;;;;;22.60;11.77;;;7.70;94.20;;;;;;5032448;28;20194;-77
2021/11/23 09:05:32;;;;;;;23.38;10.25;;;7.80;94.20;;;;;;5032316;28;20025;-77
2021/11/23 09:08:00;;;;;;;21.55;11.07;;;7.80;94.20;;;;;;5032272;28;20026;-77
2021/11/23 09:10:28;;;;;;;17.98;10.25;;;7.80;94.20;;;;;;5032202;28;20026;-77
2021/11/23 09:12:57;;;;;;;21.33;10.15;;;7.80;94.20;;;;;;5033627;28;20064;-76
2021/11/23 09:15:24;;;;;;;21.15;10.63;;;7.90;94.30;;;;;;5033674;28;20033;-78
2021/11/23 09:17:50;;;;;;;20.67;9.52;;;7.90;94.20;;;;;;5033491;28;20041;-77
2021/11/23 09:20:18;;;;;;;21.20;10.00;;;8.00;94.40;;;;;;5033375;28;20029;-77
2021/11/23 09:22:45;;;;;;;24.75;10.98;;;8.00;94.20;;;;;;5031980;28;20025;-76
2021/11/23 09:25:14;;;;;;;20.48;10.00;;;8.00;94.20;;;;;;5015797;28;20148;-77
2021/11/23 09:27:40;;;;;;;18.73;9.63;;;8.00;94.20;;;;;;5031925;28;20035;-77
2021/11/23 09:30:09;;;;;;;20.90;8.88;;;8.10;94.20;;;;;;5016186;28;20025;-77
2021/11/23 09:32:35;;;;;;;19.90;9.43;;;8.10;94.30;;;;;;5033028;28;20036;-77
2021/11/23 09:35:01;;;;;;;18.30;9.43;;;8.20;94.30;;;;;;5033133;28;20396;-77
2021/11/23 09:37:26;;;;;;;23.45;10.00;;;8.30;94.40;;;;;;5030954;28;20037;-77
2021/11/23 09:39:52;;;;;;;20.95;9.10;;;8.30;94.30;;;;;;5033097;28;20119;-76
2021/11/23 09:42:19;;;;;;;19.95;9.27;;;8.40;94.30;;;;;;5031494;28;20034;-76
2021/11/23 09:44:45;;;;;;;15.52;9.02;;;8.40;94.30;;;;;;5031624;28;20691;-75
2021/11/23 09:47:12;;;;;;;19.10;8.90;;;8.40;94.10;;;;;;5033116;28;20022;-75
2021/11/23 09:49:38;;;;;;;20.25;9.60;;;8.40;94.00;;;;;;5037935;28;20033;-76
2021/11/23 09:52:04;;;;;;;21.80;9.65;;;8.40;94.00;;;;;;5039642;28;20095;-78
2021/11/23 09:54:30;;;;;;;20.90;10.88;;;8.40;94.10;;;;;;5043187;28;20029;-78
2021/11/23 09:56:56;;;;;;;22.23;10.52;;;8.40;94.10;;;;;;5040656;28;20022;-78
2021/11/23 09:59:22;;;;;;;20.67;9.57;;;8.40;94.10;;;;;;5041579;28;20025;-77
2021/11/23 10:01:57;;;;;;;19.77;9.45;;;8.50;94.10;;;;;;5040902;28;20539;-77
2021/11/23 10:04:27;;;;;;;20.58;10.68;;;8.50;94.10;;;;;;5041823;28;20042;-78
2021/11/23 10:06:54;;;;;;;19.70;9.57;;;8.50;94.00;;;;;;5042519;28;20021;-78
2021/11/23 10:09:36;;;;;;;21.98;9.68;;;8.60;94.00;;;;;;5042879;28;20109;-77
2021/11/23 10:12:24;;;;;;;21.95;9.68;;;8.60;94.00;;;;;;5050477;28;20090;-78
2021/11/23 10:15:13;;;;;;;21.65;10.25;;;8.60;93.90;;;;;;5045244;28;20480;-77
2021/11/23 10:17:41;;;;;;;20.95;9.40;;;8.50;93.90;;;;;;5053477;28;20036;-78
2021/11/23 10:20:24;;;;;;;22.13;9.32;;;8.50;93.90;;;;;;5054186;28;20025;-77
2021/11/23 10:22:50;;;;;;;20.70;10.45;;;8.50;94.10;;;;;;5054334;28;20033;-78
2021/11/23 10:25:15;;;;;;;17.90;9.90;;;8.60;94.10;;;;;;5036721;28;20025;-78
2021/11/23 10:27:42;;;;;;;22.45;10.15;;;8.60;94.10;;;;;;5052587;28;20029;-78
2021/11/23 10:30:09;;;;;;;20.50;10.77;;;8.70;94.10;;;;;;5015759;28;20034;-78
2021/11/23 10:33:09;;;;;;;18.35;9.73;;;8.70;94.10;;;;;;5034663;28;20029;-77
2021/11/23 10:35:44;;;;;;;17.45;9.30;;;8.80;94.10;;;;;;5041537;28;20049;-78
2021/11/23 10:38:13;;;;;;;19.30;9.57;;;8.90;94.00;;;;;;5038619;28;20034;-78
2021/11/23 10:40:42;;;;;;;23.73;9.88;;;8.90;94.00;;;;;;5044235;28;20119;-78
2021/11/23 10:43:15;;;;;;;20.25;8.98;;;8.90;94.00;;;;;;5047455;28;20464;-77
2021/11/23 10:45:43;;;;;;;17.48;8.73;;;8.90;94.00;;;;;;5051704;28;20020;-78
2021/11/23 10:48:12;;;;;;;17.88;8.85;;;9.00;94.00;;;;;;5037576;28;20130;-75
2021/11/23 10:50:41;;;;;;;19.92;8.95;;;9.10;94.00;;;;;;5043235;28;20055;-77
2021/11/23 10:53:13;;;;;;;18.40;9.18;;;9.10;94.00;;;;;;5038125;28;20578;-76
2021/11/23 10:55:41;;;;;;;20.40;9.43;;;9.20;94.00;;;;;;5043667;28;20025;-76
2021/11/23 10:58:09;;;;;;;21.55;9.57;;;9.20;94.00;;;;;;5046248;28;20044;-76
2021/11/23 11:00:38;;;;;;;19.77;9.20;;;9.30;94.00;;;;;;5044107;28;20049;-77
2021/11/23 11:03:06;;;;;;;23.92;10.38;;;9.30;93.90;;;;;;5034418;28;20290;-76
2021/11/23 11:05:37;;;;;;;18.65;8.82;;;9.30;93.90;;;;;;5051348;28;20112;-76
2021/11/23 11:08:04;;;;;;;18.92;9.18;;;9.30;93.90;;;;;;5053204;28;20652;-77
2021/11/23 11:10:32;;;;;;;17.98;8.95;;;9.40;93.90;;;;;;5051725;28;20434;-77
2021/11/23 11:13:00;;;;;;;19.88;9.57;;;9.40;93.80;;;;;;5053159;28;20450;-76
2021/11/23 11:15:51;;;;;;;16.50;7.93;;;9.50;93.80;;;;;;5052459;28;20032;-77
2021/11/23 11:18:17;;;;;;;16.50;8.60;;;9.50;93.80;;;;;;5052079;28;20037;-76
2021/11/23 11:20:55;;;;;;;18.92;8.40;;;9.60;93.80;;;;;;5034654;28;20032;-77
2021/11/23 11:23:30;;;;;;;17.98;8.32;;;9.70;93.70;;;;;;5052700;28;20450;-72
2021/11/23 11:28:42;;;;;;;17.90;8.95;;;9.80;93.60;;;;;;5052379;28;20181;-78
2021/11/23 11:31:30;;;;;;;23.42;12.20;;;9.80;93.60;;;;;;5055021;28;20028;-77
2021/11/23 11:34:14;;;;;;;;;;;9.80;93.60;;;;;;5052331;28;20074;-77
2021/11/23 11:36:41;;;;;;;22.38;10.27;;;9.90;93.60;;;;;;5050763;28;20271;-78
2021/11/23 11:39:08;;;;;;;22.67;11.13;;;9.90;93.60;;;;;;5051110;28;20040;-78
2021/11/23 11:41:35;;;;;;;;;;;10.00;93.50;;;;;;5052804;28;20033;-76
2021/11/23 11:44:16;;;;;;;73.18;47.67;;;10.00;93.50;;;;;;5052444;28;19908;-77
2021/11/23 11:46:41;;;;;;;65.13;42.08;;;10.00;93.50;;;;;;5051415;28;20029;-79
2021/11/23 11:49:07;;;;;;;27.70;16.40;;;10.00;93.50;;;;;;5051324;28;20036;-77
2021/11/23 11:51:40;;;;;;;24.00;11.20;;;10.10;93.40;;;;;;5052425;28;20025;-76
2021/11/23 11:54:22;;;;;;;22.45;10.88;;;10.10;93.40;;;;;;5052568;28;20029;-76
2021/11/23 11:56:50;;;;;;;19.77;8.40;;;10.10;93.30;;;;;;5033284;28;20035;-76
2021/11/23 11:59:16;;;;;;;19.58;7.82;;;10.20;93.40;;;;;;5051857;28;20017;-73
2021/11/23 12:01:49;;;;;;;14.77;6.65;;;10.20;93.30;;;;;;5050406;28;20051;-75
2021/11/23 12:04:18;;;;;;;16.45;6.82;;;10.20;93.20;;;;;;5044879;28;20144;-80
2021/11/23 12:06:53;;;;;;;15.73;6.65;;;10.30;93.20;;;;;;5032814;28;20784;-77
2021/11/23 12:09:35;;;;;;;13.20;6.40;;;10.30;93.10;;;;;;5033610;28;20017;-81
2021/11/23 12:12:35;;;;;;;15.63;7.78;;;10.40;93.10;;;;;;5033161;28;20029;-77
2021/11/23 12:15:18;;;;;;;46.88;11.18;;;10.40;93.10;;;;;;5032324;28;20025;-77
2021/11/23 12:18:02;;;;;;;17.67;7.35;;;10.40;93.00;;;;;;5036268;28;20021;-77
2021/11/23 12:20:48;;;;;;;13.23;6.78;;;10.50;93.00;;;;;;5049799;28;20120;-75
2021/11/23 12:23:56;;;;;;;13.68;5.95;;;10.50;92.90;;;;;;5046437;28;20036;-77
2021/11/23 12:26:32;;;;;;;18.05;6.70;;;10.50;92.80;;;;;;5037586;28;20356;-77
2021/11/23 12:29:02;;;;;;;12.18;6.25;;;10.50;92.80;;;;;;5034910;28;20096;-76
2021/11/23 12:31:36;;;;;;;11.32;5.00;;;10.50;92.70;;;;;;5036302;28;20025;-74
2021/11/23 12:34:06;;;;;;;16.95;6.18;;;10.50;92.60;;;;;;5045649;28;20025;-75
2021/11/23 12:36:36;;;;;;;12.63;5.88;;;10.50;92.60;;;;;;5034502;28;20033;-76
2021/11/23 12:39:20;;;;;;;9.55;4.55;;;10.50;92.60;;;;;;5037672;28;20032;-77
2021/11/23 12:41:48;;;;;;;9.32;4.47;;;10.60;92.70;;;;;;5032211;28;20149;-75
2021/11/23 12:44:21;;;;;;;8.93;5.63;;;10.60;92.60;;;;;;5046026;28;20028;-76
2021/11/23 12:47:09;;;;;;;11.63;4.60;;;10.60;92.50;;;;;;5043477;28;20013;-77